createdAt,value
2023-01-18T00:00:34.713Z,1.97
2023-01-18T00:03:02.539Z,2.13
2023-01-18T00:05:30.537Z,2.30
2023-01-18T00:07:58.428Z,1.93
2023-01-18T00:10:27.815Z,2.10
2023-01-18T00:12:56.410Z,2.23
2023-01-18T00:15:24.392Z,2.17
2023-01-18T00:17:52.606Z,2.30
2023-01-18T00:20:22.867Z,2.80
2023-01-18T00:22:51.691Z,2.90
2023-01-18T00:25:20.439Z,2.50
2023-01-18T00:27:51.388Z,3.20
2023-01-18T00:30:21.677Z,2.70
2023-01-18T00:32:49.963Z,2.40
2023-01-18T00:35:22.138Z,2.30
2023-01-18T00:37:51.619Z,2.40
2023-01-18T00:40:20.535Z,2.83
2023-01-18T00:43:07.477Z,2.40
2023-01-18T00:45:35.650Z,2.60
2023-01-18T00:48:03.657Z,3.40
2023-01-18T00:50:31.671Z,3.20
2023-01-18T00:53:00.132Z,3.60
2023-01-18T00:55:28.549Z,3.20
2023-01-18T00:57:57.783Z,3.30
2023-01-18T01:00:27.151Z,4.10
2023-01-18T01:02:56.515Z,3.20
2023-01-18T01:05:44.065Z,3.70
2023-01-18T01:08:17.428Z,3.50
2023-01-18T01:10:46.419Z,3.27
2023-01-18T01:13:35.324Z,3.53
2023-01-18T01:16:24.305Z,3.50
2023-01-18T01:19:10.549Z,3.50
2023-01-18T01:21:56.323Z,2.90
2023-01-18T01:24:42.213Z,2.97
2023-01-18T01:27:11.308Z,3.20
2023-01-18T01:29:40.574Z,3.07
2023-01-18T01:32:08.613Z,2.80
2023-01-18T01:34:36.684Z,3.23
2023-01-18T01:37:04.658Z,3.13
2023-01-18T01:39:32.500Z,2.93
2023-01-18T01:42:00.329Z,3.03
2023-01-18T01:44:51.768Z,3.10
2023-01-18T01:47:31.649Z,3.73
2023-01-18T01:50:03.305Z,4.60
2023-01-18T01:52:37.440Z,3.73
2023-01-18T01:55:12.185Z,3.50
2023-01-18T01:57:44.936Z,3.57
2023-01-18T02:00:17.024Z,3.10
2023-01-18T02:02:48.038Z,3.17
2023-01-18T02:05:18.103Z,3.33
2023-01-18T02:07:46.632Z,3.20
2023-01-18T02:10:15.070Z,3.60
2023-01-18T02:12:45.645Z,3.90
2023-01-18T02:15:15.256Z,3.70
2023-01-18T02:18:08.004Z,4.20
2023-01-18T02:21:09.234Z,4.77
2023-01-18T02:24:11.064Z,3.90
2023-01-18T02:26:53.579Z,4.00
2023-01-18T02:29:33.595Z,3.90
2023-01-18T02:32:15.046Z,4.50
2023-01-18T02:34:49.980Z,4.50
2023-01-18T02:37:27.203Z,4.47
2023-01-18T02:40:07.039Z,5.50
2023-01-18T02:42:55.896Z,4.90
2023-01-18T02:45:50.170Z,5.00
2023-01-18T02:48:20.457Z,5.10
2023-01-18T02:50:48.389Z,6.03
2023-01-18T02:53:17.376Z,5.70
2023-01-18T02:55:51.740Z,5.37
2023-01-18T02:58:25.696Z,4.67
2023-01-18T03:01:00.978Z,5.00
2023-01-18T03:03:29.207Z,4.47
2023-01-18T03:06:01.685Z,4.07
2023-01-18T03:08:36.266Z,4.40
2023-01-18T03:11:10.152Z,4.23
2023-01-18T03:13:55.198Z,3.70
2023-01-18T03:16:26.005Z,4.23
2023-01-18T03:19:03.132Z,4.10
2023-01-18T03:21:38.696Z,4.20
2023-01-18T03:24:07.871Z,4.20
2023-01-18T03:26:40.680Z,4.30
2023-01-18T03:29:26.169Z,3.93
2023-01-18T03:32:17.757Z,4.47
2023-01-18T03:34:51.383Z,4.10
2023-01-18T03:37:23.910Z,4.47
2023-01-18T03:39:54.807Z,4.40
2023-01-18T03:42:27.136Z,4.63
2023-01-18T03:45:00.581Z,4.87
2023-01-18T03:47:30.367Z,4.47
2023-01-18T03:49:58.545Z,4.87
2023-01-18T03:52:32.353Z,5.00
2023-01-18T03:55:06.291Z,4.80
2023-01-18T03:57:39.520Z,4.87
2023-01-18T04:00:10.835Z,4.63
2023-01-18T04:02:44.712Z,4.33
2023-01-18T04:05:13.035Z,4.60
2023-01-18T04:07:40.986Z,4.90
2023-01-18T04:10:10.345Z,5.27
2023-01-18T04:12:38.300Z,5.53
2023-01-18T04:15:07.228Z,5.80
2023-01-18T04:17:35.041Z,5.20
2023-01-18T04:20:04.886Z,4.63
2023-01-18T04:22:32.849Z,4.60
2023-01-18T04:25:00.777Z,4.40
2023-01-18T04:27:28.707Z,4.30
2023-01-18T04:29:58.531Z,4.60
2023-01-18T04:32:26.422Z,8.70
2023-01-18T04:34:54.554Z,5.77
2023-01-18T04:37:31.948Z,5.73
2023-01-18T04:39:59.764Z,8.07
2023-01-18T04:42:27.776Z,5.90
2023-01-18T04:44:55.667Z,4.63
2023-01-18T04:47:23.736Z,4.80
2023-01-18T04:49:51.572Z,4.50
2023-01-18T04:52:19.486Z,6.73
2023-01-18T04:54:48.731Z,4.40
2023-01-18T04:57:16.675Z,4.67
2023-01-18T04:59:46.046Z,4.90
2023-01-18T05:02:15.990Z,5.17
2023-01-18T05:04:45.030Z,5.03
2023-01-18T05:07:13.163Z,4.57
2023-01-18T05:09:41.148Z,4.77
2023-01-18T05:12:10.441Z,4.83
2023-01-18T05:14:38.309Z,5.00
2023-01-18T05:17:07.305Z,4.90
2023-01-18T05:19:35.287Z,4.83
2023-01-18T05:22:04.510Z,5.10
2023-01-18T05:24:32.598Z,4.90
2023-01-18T05:27:00.565Z,5.50
2023-01-18T05:29:29.823Z,5.20
2023-01-18T05:31:57.713Z,5.83
2023-01-18T05:34:27.196Z,5.50
2023-01-18T05:36:55.017Z,5.90
2023-01-18T05:39:23.546Z,6.20
2023-01-18T05:41:51.496Z,6.07
2023-01-18T05:44:19.354Z,7.87
2023-01-18T05:46:48.643Z,6.90
2023-01-18T05:49:16.778Z,7.00
2023-01-18T05:51:44.745Z,8.07
2023-01-18T05:54:13.326Z,7.53
2023-01-18T05:56:42.140Z,7.83
2023-01-18T05:59:10.220Z,7.90
2023-01-18T06:01:38.241Z,7.37
2023-01-18T06:04:07.650Z,8.50
2023-01-18T06:06:35.496Z,9.10
2023-01-18T06:09:03.826Z,8.90
2023-01-18T06:11:32.051Z,9.90
2023-01-18T06:14:00.100Z,9.87
2023-01-18T06:16:28.101Z,17.27
2023-01-18T06:18:56.043Z,15.80
2023-01-18T06:21:25.337Z,16.50
2023-01-18T06:23:53.261Z,10.87
2023-01-18T06:26:21.177Z,16.60
2023-01-18T06:28:49.046Z,14.23
2023-01-18T06:31:17.014Z,10.50
2023-01-18T06:33:45.430Z,8.80
2023-01-18T06:36:13.358Z,8.53
2023-01-18T06:38:42.769Z,8.10
2023-01-18T06:41:10.895Z,6.93
2023-01-18T06:43:38.830Z,6.40
2023-01-18T06:46:08.276Z,6.30
2023-01-18T06:48:36.460Z,6.47
2023-01-18T06:51:04.592Z,6.40
2023-01-18T06:53:32.493Z,5.63
2023-01-18T06:56:02.705Z,5.60
2023-01-18T06:58:32.847Z,5.70
2023-01-18T07:01:01.781Z,5.57
2023-01-18T07:03:30.961Z,7.10
2023-01-18T07:06:01.385Z,8.40
2023-01-18T07:08:31.370Z,7.87
2023-01-18T07:11:04.739Z,9.30
2023-01-18T07:13:32.689Z,16.23
2023-01-18T07:16:02.067Z,10.03
2023-01-18T07:18:31.209Z,8.50
2023-01-18T07:21:00.916Z,10.10
2023-01-18T07:23:29.397Z,9.10
2023-01-18T07:26:03.454Z,10.00
2023-01-18T07:28:32.119Z,13.23
2023-01-18T07:31:00.487Z,11.23
2023-01-18T07:33:28.969Z,10.50
2023-01-18T07:35:58.733Z,8.87
2023-01-18T07:38:27.237Z,8.03
2023-01-18T07:41:02.211Z,8.60
2023-01-18T07:43:33.376Z,7.70
2023-01-18T07:46:04.179Z,7.43
2023-01-18T07:48:32.808Z,8.00
2023-01-18T07:51:02.831Z,7.60
2023-01-18T07:53:31.767Z,8.50
2023-01-18T07:56:00.977Z,8.20
2023-01-18T07:58:29.479Z,7.60
2023-01-18T08:01:03.264Z,7.30
2023-01-18T08:03:31.207Z,7.23
2023-01-18T08:05:59.860Z,6.93
2023-01-18T08:08:28.731Z,5.47
2023-01-18T08:10:57.433Z,5.80
2023-01-18T08:13:26.963Z,5.23
2023-01-18T08:15:55.433Z,4.67
2023-01-18T08:18:24.738Z,5.83
2023-01-18T08:20:55.038Z,7.63
2023-01-18T08:23:23.606Z,12.17
2023-01-18T08:25:51.916Z,10.07
2023-01-18T08:28:20.696Z,13.37
2023-01-18T08:30:49.704Z,16.40
2023-01-18T08:33:17.896Z,12.40
2023-01-18T08:35:48.725Z,14.13
2023-01-18T08:38:17.504Z,8.17
2023-01-18T08:40:45.428Z,7.23
2023-01-18T08:43:13.361Z,7.80
2023-01-18T08:45:41.443Z,6.90
2023-01-18T08:48:11.715Z,8.00
2023-01-18T08:50:40.152Z,9.30
2023-01-18T08:53:09.342Z,7.90
2023-01-18T08:55:38.287Z,8.60
2023-01-18T08:58:06.144Z,8.17
2023-01-18T09:00:34.270Z,9.83
2023-01-18T09:03:02.834Z,8.10
2023-01-18T09:05:31.054Z,7.50
2023-01-18T09:07:59.043Z,6.33
2023-01-18T09:10:28.381Z,5.53
2023-01-18T09:12:56.609Z,5.30
2023-01-18T09:15:24.690Z,5.60
2023-01-18T09:17:52.460Z,4.97
2023-01-18T09:20:20.445Z,4.93
2023-01-18T09:22:48.857Z,5.87
2023-01-18T09:25:18.397Z,8.13
2023-01-18T09:27:47.804Z,10.57
2023-01-18T09:30:17.119Z,7.27
2023-01-18T09:32:45.021Z,13.20
2023-01-18T09:35:17.982Z,13.00
2023-01-18T09:37:46.292Z,12.17
2023-01-18T09:40:19.718Z,5.90
2023-01-18T09:42:51.435Z,6.63
2023-01-18T09:45:29.473Z,6.87
2023-01-18T09:48:03.451Z,8.40
2023-01-18T09:50:35.731Z,7.13
2023-01-18T09:53:19.062Z,7.07
2023-01-18T09:55:54.089Z,7.67
2023-01-18T09:58:48.109Z,7.40
2023-01-18T10:01:21.020Z,6.67
2023-01-18T10:03:54.644Z,6.73
2023-01-18T10:06:28.147Z,7.40
2023-01-18T10:09:00.230Z,6.23
2023-01-18T10:11:34.491Z,7.07
2023-01-18T10:14:08.916Z,7.10
2023-01-18T10:16:38.792Z,7.20
2023-01-18T10:19:16.003Z,7.00
2023-01-18T10:21:52.360Z,6.43
2023-01-18T10:24:30.888Z,6.10
2023-01-18T10:27:11.649Z,5.20
2023-01-18T10:29:58.432Z,4.83
2023-01-18T10:32:29.053Z,5.57
2023-01-18T10:34:58.700Z,5.27
2023-01-18T10:37:35.672Z,6.77
2023-01-18T10:40:06.078Z,6.00
2023-01-18T10:42:40.799Z,5.50
2023-01-18T10:45:19.233Z,8.63
2023-01-18T10:47:47.530Z,7.00
2023-01-18T10:50:17.796Z,8.07
2023-01-18T10:52:45.717Z,6.67
2023-01-18T10:55:17.594Z,6.10
2023-01-18T10:57:48.756Z,5.03
2023-01-18T11:00:26.533Z,5.30
2023-01-18T11:02:57.123Z,5.50
2023-01-18T11:05:30.810Z,6.20
2023-01-18T11:08:12.651Z,6.80
2023-01-18T11:10:41.459Z,6.33
2023-01-18T11:13:27.689Z,7.07
2023-01-18T11:16:10.400Z,8.73
2023-01-18T11:18:38.359Z,7.17
2023-01-18T11:21:12.151Z,7.43
2023-01-18T11:23:43.696Z,7.00
2023-01-18T11:26:15.470Z,7.20
2023-01-18T11:28:49.510Z,7.20
2023-01-18T11:31:22.364Z,7.53
2023-01-18T11:33:52.959Z,8.13
2023-01-18T11:36:34.029Z,7.83
2023-01-18T11:39:27.222Z,9.77
2023-01-18T11:42:14.920Z,8.73
2023-01-18T11:44:48.283Z,7.70
2023-01-18T11:47:22.706Z,6.70
2023-01-18T11:50:01.003Z,7.13
2023-01-18T11:52:43.193Z,7.00
2023-01-18T11:55:22.357Z,5.93
2023-01-18T11:57:50.816Z,7.00
2023-01-18T12:00:24.403Z,7.77
2023-01-18T12:03:25.839Z,6.33
2023-01-18T12:05:58.998Z,5.73
2023-01-18T12:08:55.010Z,5.50
2023-01-18T12:11:35.338Z,6.30
2023-01-18T12:14:13.531Z,6.60
2023-01-18T12:17:05.927Z,6.67
2023-01-18T12:19:54.380Z,6.80
2023-01-18T12:22:58.835Z,6.87
2023-01-18T12:25:41.754Z,8.23
2023-01-18T12:28:20.866Z,8.57
2023-01-18T12:30:59.296Z,7.63
2023-01-18T12:33:43.772Z,7.80
2023-01-18T12:36:29.943Z,9.00
2023-01-18T12:38:58.248Z,10.40
2023-01-18T12:41:48.621Z,10.43
2023-01-18T12:44:46.221Z,8.97
2023-01-18T12:47:34.935Z,9.90
2023-01-18T12:50:08.698Z,8.90
2023-01-18T12:52:46.037Z,8.80
2023-01-18T12:55:21.313Z,9.30
2023-01-18T12:57:52.153Z,10.00
2023-01-18T13:00:25.831Z,10.63
2023-01-18T13:02:57.985Z,10.07
2023-01-18T13:05:35.083Z,11.87
2023-01-18T13:08:11.016Z,12.80
2023-01-18T13:10:39.672Z,10.83
2023-01-18T13:13:08.733Z,10.30
2023-01-18T13:15:45.893Z,9.93
2023-01-18T13:18:21.853Z,9.70
2023-01-18T13:21:02.588Z,10.13
2023-01-18T13:23:39.746Z,9.80
2023-01-18T13:26:22.035Z,9.20
2023-01-18T13:29:06.246Z,9.23
2023-01-18T13:31:34.748Z,9.27
2023-01-18T13:34:03.397Z,9.20
2023-01-18T13:36:44.776Z,8.13
2023-01-18T13:39:16.608Z,8.80
2023-01-18T13:42:10.726Z,8.93
2023-01-18T13:44:40.874Z,8.60
2023-01-18T13:47:42.807Z,9.67
2023-01-18T13:50:42.269Z,8.30
2023-01-18T13:53:21.093Z,8.50
2023-01-18T13:56:10.317Z,9.00
2023-01-18T13:58:38.709Z,8.67
2023-01-18T14:01:09.047Z,8.83
2023-01-18T14:03:41.841Z,9.67
2023-01-18T14:06:29.179Z,10.83
2023-01-18T14:09:04.427Z,9.80
2023-01-18T14:11:37.830Z,10.23
2023-01-18T14:14:24.817Z,11.20
2023-01-18T14:16:59.868Z,11.00
2023-01-18T14:19:29.955Z,11.77
2023-01-18T14:22:13.734Z,12.33
2023-01-18T14:25:02.440Z,11.73
2023-01-18T14:27:38.712Z,11.17
2023-01-18T14:30:12.817Z,11.47
2023-01-18T14:32:45.952Z,12.17
2023-01-18T14:35:19.736Z,11.63
2023-01-18T14:37:47.892Z,10.80
2023-01-18T14:40:19.696Z,11.20
2023-01-18T14:42:53.177Z,11.70
2023-01-18T14:45:27.119Z,11.73
2023-01-18T14:47:56.996Z,11.63
2023-01-18T14:50:27.024Z,12.03
2023-01-18T14:52:55.175Z,11.83
2023-01-18T14:55:29.944Z,11.90
2023-01-18T14:58:13.441Z,12.40
2023-01-18T15:00:49.525Z,11.90
2023-01-18T15:03:24.311Z,11.47
2023-01-18T15:05:59.924Z,11.10
2023-01-18T15:08:29.413Z,12.07
2023-01-18T15:10:57.983Z,12.03
2023-01-18T15:13:27.576Z,11.83
2023-01-18T15:15:58.762Z,12.60
2023-01-18T15:18:29.531Z,11.80
2023-01-18T15:20:59.292Z,12.23
2023-01-18T15:23:29.323Z,12.63
2023-01-18T15:25:58.855Z,12.10
2023-01-18T15:28:35.001Z,12.53
2023-01-18T15:31:12.468Z,11.53
2023-01-18T15:33:41.544Z,11.07
2023-01-18T15:36:10.689Z,10.83
2023-01-18T15:38:39.793Z,11.10
2023-01-18T15:41:12.027Z,11.23
2023-01-18T15:43:43.470Z,10.27
2023-01-18T15:46:14.037Z,9.40
2023-01-18T15:48:49.895Z,9.33
2023-01-18T15:51:18.263Z,8.30
2023-01-18T15:53:52.434Z,11.93
2023-01-18T15:56:24.838Z,14.13
2023-01-18T15:58:56.328Z,11.73
2023-01-18T16:01:28.053Z,12.43
2023-01-18T16:03:59.620Z,12.77
2023-01-18T16:06:33.373Z,13.63
2023-01-18T16:09:10.335Z,14.53
2023-01-18T16:11:45.741Z,15.50
2023-01-18T16:14:24.609Z,15.20
2023-01-18T16:16:54.153Z,16.33
2023-01-18T16:19:28.347Z,16.20
2023-01-18T16:21:59.656Z,18.00
2023-01-18T16:24:31.718Z,16.60
2023-01-18T16:27:01.852Z,17.07
2023-01-18T16:29:39.741Z,16.63
2023-01-18T16:32:29.861Z,15.67
2023-01-18T16:34:59.755Z,15.93
2023-01-18T16:37:27.964Z,17.43
2023-01-18T16:39:55.837Z,20.90
2023-01-18T16:42:37.023Z,31.50
2023-01-18T16:45:14.522Z,21.70
2023-01-18T16:47:42.675Z,18.73
2023-01-18T16:50:15.354Z,19.00
2023-01-18T16:52:43.307Z,19.63
2023-01-18T16:55:13.564Z,20.77
2023-01-18T16:57:42.043Z,23.90
2023-01-18T17:00:18.186Z,19.00
2023-01-18T17:02:48.495Z,17.70
2023-01-18T17:05:17.065Z,19.10
2023-01-18T17:07:45.259Z,16.43
2023-01-18T17:10:21.479Z,16.07
2023-01-18T17:12:49.404Z,18.10
2023-01-18T17:15:20.108Z,17.17
2023-01-18T17:17:48.097Z,15.23
2023-01-18T17:20:18.713Z,19.60
2023-01-18T17:22:46.918Z,19.60
2023-01-18T17:25:15.349Z,16.73
2023-01-18T17:27:43.328Z,16.40
2023-01-18T17:30:13.616Z,16.53
2023-01-18T17:32:43.127Z,15.10
2023-01-18T17:35:11.996Z,15.27
2023-01-18T17:37:39.895Z,15.23
2023-01-18T17:40:17.094Z,14.70
2023-01-18T17:42:51.848Z,15.50
2023-01-18T17:45:19.958Z,14.60
2023-01-18T17:47:49.260Z,19.87
2023-01-18T17:50:22.991Z,16.53
2023-01-18T17:52:50.894Z,15.83
2023-01-18T17:55:27.224Z,16.87
2023-01-18T17:57:58.592Z,15.27
2023-01-18T18:00:26.671Z,15.90
2023-01-18T18:02:57.338Z,17.00
2023-01-18T18:05:25.352Z,18.07
2023-01-18T18:07:53.274Z,17.93
2023-01-18T18:10:21.368Z,17.00
2023-01-18T18:12:49.297Z,17.43
2023-01-18T18:15:17.277Z,15.77
2023-01-18T18:17:45.157Z,14.87
2023-01-18T18:20:14.720Z,15.20
2023-01-18T18:22:42.635Z,17.17
2023-01-18T18:25:11.015Z,18.70
2023-01-18T18:27:47.342Z,17.87
2023-01-18T18:30:16.707Z,19.00
2023-01-18T18:32:44.687Z,18.77
2023-01-18T18:35:25.079Z,17.93
2023-01-18T18:37:55.442Z,18.80
2023-01-18T18:40:23.824Z,19.20
2023-01-18T18:43:02.043Z,18.03
2023-01-18T18:45:31.801Z,16.90
2023-01-18T18:47:59.956Z,17.33
2023-01-18T18:50:30.174Z,18.30
2023-01-18T18:52:58.905Z,17.10
2023-01-18T18:55:27.132Z,18.40
2023-01-18T18:57:54.994Z,17.20
2023-01-18T19:00:24.479Z,17.40
2023-01-18T19:02:52.463Z,18.57
2023-01-18T19:05:20.380Z,19.70
2023-01-18T19:07:51.215Z,20.43
2023-01-18T19:10:20.668Z,19.73
2023-01-18T19:12:54.340Z,20.20
2023-01-18T19:15:26.273Z,21.27
2023-01-18T19:17:54.442Z,21.30
2023-01-18T19:20:22.723Z,21.00
2023-01-18T19:22:52.089Z,19.37
2023-01-18T19:25:20.515Z,21.60
2023-01-18T19:27:48.457Z,20.87
2023-01-18T19:30:20.033Z,20.10
2023-01-18T19:32:49.056Z,18.70
2023-01-18T19:35:17.383Z,18.80
2023-01-18T19:37:46.181Z,19.50
2023-01-18T19:40:16.727Z,19.37
2023-01-18T19:42:47.925Z,19.33
2023-01-18T19:45:23.208Z,19.30
2023-01-18T19:47:55.526Z,19.90
2023-01-18T19:50:23.845Z,21.20
2023-01-18T19:52:51.976Z,19.17
2023-01-18T19:55:21.777Z,19.23
2023-01-18T19:57:49.887Z,20.37
2023-01-18T20:00:18.630Z,19.57
2023-01-18T20:02:46.732Z,18.67
2023-01-18T20:05:14.686Z,18.77
2023-01-18T20:07:42.624Z,19.63
2023-01-18T20:10:11.734Z,19.57
2023-01-18T20:12:40.988Z,20.47
2023-01-18T20:15:09.587Z,18.67
2023-01-18T20:17:38.832Z,20.00
2023-01-18T20:20:07.559Z,19.37
2023-01-18T20:22:35.472Z,20.30
2023-01-18T20:25:04.317Z,18.63
2023-01-18T20:27:32.265Z,18.97
2023-01-18T20:30:01.553Z,19.10
2023-01-18T20:32:29.564Z,17.57
2023-01-18T20:34:57.811Z,17.40
2023-01-18T20:37:26.124Z,16.87
2023-01-18T20:39:55.936Z,18.90
2023-01-18T20:42:23.828Z,18.70
2023-01-18T20:44:53.760Z,19.80
2023-01-18T20:47:23.024Z,18.70
2023-01-18T20:49:50.917Z,18.47
2023-01-18T20:52:18.817Z,19.03
2023-01-18T20:54:46.724Z,18.87
2023-01-18T20:57:14.674Z,17.63
2023-01-18T20:59:42.596Z,20.30
2023-01-18T21:02:11.376Z,17.03
2023-01-18T21:04:40.829Z,16.33
2023-01-18T21:07:08.779Z,16.33
2023-01-18T21:09:36.676Z,16.20
2023-01-18T21:12:04.865Z,15.37
2023-01-18T21:14:33.000Z,14.83
2023-01-18T21:17:00.853Z,14.67
2023-01-18T21:19:29.302Z,14.63
2023-01-18T21:21:58.710Z,14.83
2023-01-18T21:24:26.649Z,14.33
2023-01-18T21:26:54.656Z,14.37
2023-01-18T21:29:22.547Z,16.10
2023-01-18T21:31:50.674Z,14.27
2023-01-18T21:34:18.797Z,13.40
2023-01-18T21:36:46.838Z,14.13
2023-01-18T21:39:24.682Z,14.07
2023-01-18T21:42:10.515Z,13.10
2023-01-18T21:44:56.077Z,13.80
2023-01-18T21:47:24.480Z,12.80
2023-01-18T21:50:18.457Z,13.73
2023-01-18T21:53:04.328Z,15.17
2023-01-18T21:55:34.327Z,13.90
2023-01-18T21:58:19.540Z,12.40
2023-01-18T22:00:47.567Z,12.37
2023-01-18T22:03:18.328Z,12.43
2023-01-18T22:05:46.119Z,12.40
2023-01-18T22:08:14.035Z,12.80
2023-01-18T22:10:46.849Z,12.90
2023-01-18T22:13:14.780Z,13.00
2023-01-18T22:15:42.630Z,12.93
2023-01-18T22:18:10.428Z,13.03
2023-01-18T22:20:38.266Z,13.43
2023-01-18T22:23:06.138Z,14.00
2023-01-18T22:25:34.128Z,15.90
2023-01-18T22:28:03.724Z,14.47
2023-01-18T22:30:31.760Z,15.40
2023-01-18T22:32:59.669Z,14.73
2023-01-18T22:35:27.633Z,15.00
2023-01-18T22:37:56.038Z,14.97
2023-01-18T22:40:23.959Z,17.10
2023-01-18T22:42:52.079Z,15.00
2023-01-18T22:45:21.310Z,16.10
2023-01-18T22:47:49.288Z,14.43
2023-01-18T22:50:18.150Z,16.20
2023-01-18T22:52:45.959Z,16.27
2023-01-18T22:55:13.921Z,16.50
2023-01-18T22:57:42.713Z,17.03
2023-01-18T23:00:12.223Z,16.77
2023-01-18T23:02:41.462Z,14.93
2023-01-18T23:05:09.743Z,15.67
2023-01-18T23:07:38.538Z,15.50
2023-01-18T23:10:06.781Z,14.67
2023-01-18T23:12:37.732Z,15.23
2023-01-18T23:15:23.870Z,15.70
2023-01-18T23:17:53.089Z,16.87
2023-01-18T23:20:23.237Z,14.03
2023-01-18T23:22:51.316Z,15.53
2023-01-18T23:25:19.431Z,16.20
2023-01-18T23:27:47.423Z,13.70
2023-01-18T23:30:16.328Z,12.63
2023-01-18T23:32:44.221Z,12.70
2023-01-18T23:35:13.748Z,11.60
2023-01-18T23:37:41.578Z,13.07
2023-01-18T23:40:30.822Z,12.20
2023-01-18T23:43:16.232Z,14.40
2023-01-18T23:46:01.496Z,13.30
2023-01-18T23:48:46.914Z,15.80
2023-01-18T23:51:34.141Z,16.00
2023-01-18T23:54:14.016Z,16.97
2023-01-18T23:56:41.938Z,17.70
2023-01-18T23:59:10.085Z,18.00
